createdAt,value
2023-05-17T00:01:43.083Z,4.18
2023-05-17T00:04:09.572Z,4.88
2023-05-17T00:06:36.065Z,3.42
2023-05-17T00:09:03.219Z,4.35
2023-05-17T00:11:29.542Z,4.25
2023-05-17T00:13:55.867Z,3.65
2023-05-17T00:16:22.215Z,4.65
2023-05-17T00:18:48.655Z,3.70
2023-05-17T00:21:15.070Z,3.45
2023-05-17T00:23:41.395Z,3.45
2023-05-17T00:26:07.820Z,3.95
2023-05-17T00:28:34.197Z,5.20
2023-05-17T00:31:00.568Z,4.95
2023-05-17T00:33:26.894Z,4.30
2023-05-17T00:35:53.259Z,3.67
2023-05-17T00:38:19.912Z,4.22
2023-05-17T00:40:46.297Z,3.97
2023-05-17T00:43:12.751Z,3.53
2023-05-17T00:45:39.286Z,4.50
2023-05-17T00:48:05.728Z,2.03
2023-05-17T00:50:32.154Z,3.97
2023-05-17T00:52:58.790Z,2.75
2023-05-17T00:55:25.170Z,3.95
2023-05-17T00:57:51.592Z,2.97
2023-05-17T01:00:18.515Z,2.67
2023-05-17T01:02:44.986Z,2.13
2023-05-17T01:05:11.919Z,1.80
2023-05-17T01:07:38.339Z,1.77
2023-05-17T01:10:05.213Z,1.60
2023-05-17T01:12:43.339Z,2.05
2023-05-17T01:15:16.850Z,2.05
2023-05-17T01:17:49.238Z,1.48
2023-05-17T01:20:20.425Z,2.50
2023-05-17T01:22:58.997Z,2.13
2023-05-17T01:25:44.202Z,1.58
2023-05-17T01:28:11.444Z,2.47
2023-05-17T01:30:38.427Z,1.85
2023-05-17T01:33:06.026Z,1.45
2023-05-17T01:35:32.563Z,1.90
2023-05-17T01:37:58.993Z,2.03
2023-05-17T01:40:25.576Z,1.73
2023-05-17T01:42:57.853Z,1.60
2023-05-17T01:45:24.198Z,2.22
2023-05-17T01:47:57.176Z,1.88
2023-05-17T01:50:24.626Z,1.20
2023-05-17T01:52:53.391Z,1.75
2023-05-17T01:55:28.267Z,1.63
2023-05-17T01:57:56.057Z,2.03
2023-05-17T02:00:22.738Z,2.13
2023-05-17T02:02:49.125Z,2.20
2023-05-17T02:05:15.568Z,2.03
2023-05-17T02:07:42.005Z,2.08
2023-05-17T02:10:08.550Z,2.25
2023-05-17T02:12:35.090Z,2.20
2023-05-17T02:15:01.539Z,1.75
2023-05-17T02:17:28.133Z,1.90
2023-05-17T02:19:54.710Z,1.52
2023-05-17T02:22:21.013Z,2.10
2023-05-17T02:24:48.368Z,2.03
2023-05-17T02:27:14.647Z,3.15
2023-05-17T02:29:41.002Z,2.25
2023-05-17T02:32:07.489Z,1.77
2023-05-17T02:34:33.775Z,1.88
2023-05-17T02:37:00.091Z,1.50
2023-05-17T02:39:26.514Z,1.63
2023-05-17T02:41:52.977Z,1.60
2023-05-17T02:44:19.350Z,2.30
2023-05-17T02:46:45.832Z,2.10
2023-05-17T02:49:12.338Z,2.03
2023-05-17T02:51:38.677Z,1.65
2023-05-17T02:54:05.035Z,1.55
2023-05-17T02:56:31.380Z,1.83
2023-05-17T02:58:57.793Z,2.10
2023-05-17T03:01:24.181Z,2.13
2023-05-17T03:03:50.624Z,2.10
2023-05-17T03:06:17.023Z,1.83
2023-05-17T03:08:43.307Z,2.00
2023-05-17T03:11:09.624Z,2.10
2023-05-17T03:13:36.067Z,2.17
2023-05-17T03:16:02.383Z,2.15
2023-05-17T03:18:28.805Z,1.98
2023-05-17T03:20:55.262Z,1.50
2023-05-17T03:23:21.634Z,1.92
2023-05-17T03:25:47.969Z,1.65
2023-05-17T03:28:14.294Z,2.55
2023-05-17T03:30:40.945Z,1.13
2023-05-17T03:33:07.644Z,1.60
2023-05-17T03:35:34.159Z,1.75
2023-05-17T03:38:00.459Z,2.05
2023-05-17T03:40:26.815Z,1.13
2023-05-17T03:42:54.138Z,0.57
2023-05-17T03:45:20.567Z,1.20
2023-05-17T03:47:47.265Z,1.08
2023-05-17T03:50:13.593Z,1.55
2023-05-17T03:52:41.877Z,0.80
2023-05-17T03:55:09.369Z,1.23
2023-05-17T03:57:35.675Z,0.40
2023-05-17T04:00:01.992Z,0.85
2023-05-17T04:02:28.387Z,0.55
2023-05-17T04:04:54.778Z,1.23
2023-05-17T04:07:21.155Z,1.13
2023-05-17T04:09:47.716Z,1.15
2023-05-17T04:12:14.087Z,0.95
2023-05-17T04:14:40.513Z,1.77
2023-05-17T04:17:06.821Z,1.05
2023-05-17T04:19:33.975Z,1.00
2023-05-17T04:22:00.424Z,1.45
2023-05-17T04:24:26.779Z,0.77
2023-05-17T04:26:53.135Z,0.90
2023-05-17T04:29:19.569Z,1.02
2023-05-17T04:31:48.801Z,2.13
2023-05-17T04:34:15.689Z,1.35
2023-05-17T04:36:42.060Z,0.80
2023-05-17T04:39:08.456Z,0.77
2023-05-17T04:41:34.803Z,0.55
2023-05-17T04:44:01.137Z,1.58
2023-05-17T04:46:27.570Z,0.90
2023-05-17T04:48:56.351Z,1.00
2023-05-17T04:51:22.808Z,0.50
2023-05-17T04:53:49.144Z,0.40
2023-05-17T04:56:15.492Z,0.60
2023-05-17T04:58:41.876Z,1.25
2023-05-17T05:01:08.210Z,1.35
2023-05-17T05:03:34.679Z,1.50
2023-05-17T05:06:01.047Z,0.85
2023-05-17T05:08:28.247Z,0.70
2023-05-17T05:10:54.600Z,0.68
2023-05-17T05:13:21.745Z,1.25
2023-05-17T05:15:48.078Z,1.45
2023-05-17T05:18:14.615Z,0.85
2023-05-17T05:20:41.045Z,0.95
2023-05-17T05:23:07.449Z,0.93
2023-05-17T05:25:34.209Z,1.13
2023-05-17T05:28:00.574Z,1.42
2023-05-17T05:30:26.926Z,0.55
2023-05-17T05:32:53.490Z,1.85
2023-05-17T05:35:20.029Z,0.77
2023-05-17T05:37:46.396Z,1.20
2023-05-17T05:40:13.081Z,0.38
2023-05-17T05:42:39.381Z,1.00
2023-05-17T05:45:05.961Z,1.10
2023-05-17T05:47:32.277Z,0.60
2023-05-17T05:49:58.820Z,0.43
2023-05-17T05:52:25.147Z,1.08
2023-05-17T05:54:51.460Z,1.05
2023-05-17T05:57:17.755Z,0.52
2023-05-17T05:59:44.104Z,0.93
2023-05-17T06:02:10.432Z,0.85
2023-05-17T06:04:45.057Z,0.38
2023-05-17T06:07:12.451Z,0.40
2023-05-17T06:09:38.814Z,0.82
2023-05-17T06:12:05.448Z,0.40
2023-05-17T06:14:31.816Z,0.80
2023-05-17T06:16:58.308Z,1.13
2023-05-17T06:19:25.113Z,1.10
2023-05-17T06:21:51.836Z,0.90
2023-05-17T06:24:18.224Z,0.60
2023-05-17T06:26:44.567Z,0.57
2023-05-17T06:29:11.210Z,0.40
2023-05-17T06:31:37.528Z,0.35
2023-05-17T06:34:04.016Z,0.93
2023-05-17T06:38:57.044Z,0.68
2023-05-17T06:41:23.491Z,0.30
2023-05-17T06:43:49.804Z,1.23
2023-05-17T06:46:16.140Z,0.90
2023-05-17T06:48:42.727Z,0.90
2023-05-17T06:51:09.237Z,0.65
2023-05-17T06:53:35.781Z,0.88
2023-05-17T06:56:02.072Z,0.40
2023-05-17T06:58:28.464Z,1.45
2023-05-17T07:00:55.007Z,0.93
2023-05-17T07:03:21.591Z,1.60
2023-05-17T07:05:47.989Z,1.65
2023-05-17T07:08:15.588Z,0.47
2023-05-17T07:10:42.068Z,0.45
2023-05-17T07:13:08.396Z,0.75
2023-05-17T07:15:34.761Z,0.63
2023-05-17T07:18:01.216Z,0.40
2023-05-17T07:20:27.726Z,0.35
2023-05-17T07:22:54.078Z,0.60
2023-05-17T07:25:21.479Z,0.57
2023-05-17T07:27:47.836Z,1.13
2023-05-17T07:30:14.326Z,1.17
2023-05-17T07:32:40.803Z,1.08
2023-05-17T07:35:07.384Z,0.60
2023-05-17T07:37:33.809Z,0.73
2023-05-17T07:40:00.347Z,0.32
2023-05-17T07:42:26.694Z,0.85
2023-05-17T07:44:53.077Z,1.27
2023-05-17T07:47:19.475Z,0.38
2023-05-17T07:49:45.866Z,0.95
2023-05-17T07:52:12.789Z,0.60
2023-05-17T07:54:39.302Z,1.20
2023-05-17T07:57:05.774Z,0.50
2023-05-17T07:59:32.102Z,0.40
2023-05-17T08:01:58.519Z,0.50
2023-05-17T08:04:24.865Z,0.10
2023-05-17T08:06:51.432Z,0.73
2023-05-17T08:09:18.018Z,0.55
2023-05-17T08:11:46.038Z,0.88
2023-05-17T08:14:13.610Z,0.57
2023-05-17T08:16:40.238Z,1.38
2023-05-17T08:19:06.675Z,1.05
2023-05-17T08:21:33.117Z,0.70
2023-05-17T08:24:00.054Z,0.82
2023-05-17T08:26:27.468Z,0.60
2023-05-17T08:28:56.446Z,0.68
2023-05-17T08:31:22.765Z,0.40
2023-05-17T08:33:49.378Z,0.40
2023-05-17T08:36:16.133Z,0.43
2023-05-17T08:38:42.888Z,0.70
2023-05-17T08:41:09.590Z,0.50
2023-05-17T08:43:36.118Z,0.93
2023-05-17T08:46:04.115Z,0.90
2023-05-17T08:48:36.811Z,0.68
2023-05-17T08:51:03.471Z,0.50
2023-05-17T08:53:29.729Z,1.02
2023-05-17T08:56:00.852Z,1.48
2023-05-17T08:58:29.307Z,0.70
2023-05-17T09:00:56.357Z,0.32
2023-05-17T09:03:23.922Z,0.20
2023-05-17T09:05:52.703Z,0.35
2023-05-17T09:08:21.318Z,0.57
2023-05-17T09:10:47.914Z,0.50
2023-05-17T09:13:14.301Z,0.85
2023-05-17T09:15:44.894Z,0.38
2023-05-17T09:18:12.190Z,0.98
2023-05-17T09:20:39.696Z,0.63
2023-05-17T09:23:10.745Z,0.40
2023-05-17T09:25:37.320Z,1.67
2023-05-17T09:28:09.935Z,0.73
2023-05-17T09:30:39.705Z,0.70
2023-05-17T09:33:11.137Z,0.80
2023-05-17T09:35:38.864Z,0.43
2023-05-17T09:38:09.087Z,1.00
2023-05-17T09:40:42.373Z,0.30
2023-05-17T09:43:09.432Z,0.40
2023-05-17T09:45:36.492Z,1.23
2023-05-17T09:48:13.736Z,0.70
2023-05-17T09:50:43.626Z,0.90
2023-05-17T09:53:30.250Z,0.60
2023-05-17T09:55:58.541Z,0.82
2023-05-17T09:58:25.471Z,0.80
2023-05-17T10:00:55.879Z,1.23
2023-05-17T10:03:22.379Z,0.63
2023-05-17T10:05:50.872Z,0.65
2023-05-17T10:08:17.652Z,0.65
2023-05-17T10:10:44.653Z,0.82
2023-05-17T10:13:11.348Z,0.60
2023-05-17T10:15:39.861Z,1.08
2023-05-17T10:18:08.071Z,1.10
2023-05-17T10:20:34.601Z,0.55
2023-05-17T10:23:03.693Z,0.95
2023-05-17T10:25:30.749Z,0.50
2023-05-17T10:27:57.368Z,1.25
2023-05-17T10:30:25.258Z,0.50
2023-05-17T10:32:53.060Z,0.60
2023-05-17T10:35:19.913Z,0.65
2023-05-17T10:37:46.414Z,0.93
2023-05-17T10:40:17.385Z,0.80
2023-05-17T10:42:46.575Z,0.68
2023-05-17T10:45:13.209Z,1.00
2023-05-17T10:47:41.358Z,0.82
2023-05-17T10:50:13.109Z,1.02
2023-05-17T10:52:45.430Z,0.57
2023-05-17T10:55:11.991Z,0.65
2023-05-17T10:57:50.500Z,0.60
2023-05-17T11:00:21.206Z,0.57
2023-05-17T11:02:48.875Z,0.70
2023-05-17T11:05:25.739Z,0.85
2023-05-17T11:07:52.255Z,0.60
2023-05-17T11:10:18.586Z,0.57
2023-05-17T11:12:47.978Z,1.17
2023-05-17T11:15:15.086Z,0.60
2023-05-17T11:17:44.734Z,0.50
2023-05-17T11:20:16.444Z,0.60
2023-05-17T11:22:56.095Z,1.05
2023-05-17T11:25:22.470Z,1.00
2023-05-17T11:27:50.279Z,0.52
2023-05-17T11:30:18.548Z,0.68
2023-05-17T11:32:49.996Z,0.70
2023-05-17T11:35:17.658Z,0.65
2023-05-17T11:37:44.613Z,0.77
2023-05-17T11:40:13.050Z,0.63
2023-05-17T11:42:39.645Z,0.95
2023-05-17T11:45:06.465Z,0.80
2023-05-17T11:47:33.195Z,0.70
2023-05-17T11:50:03.871Z,0.90
2023-05-17T11:52:31.291Z,1.08
2023-05-17T11:54:58.500Z,0.82
2023-05-17T11:57:31.944Z,0.90
2023-05-17T12:00:02.473Z,0.90
2023-05-17T12:02:30.197Z,0.65
2023-05-17T12:04:57.204Z,0.65
2023-05-17T12:07:24.640Z,0.70
2023-05-17T12:09:51.203Z,0.80
2023-05-17T12:12:17.528Z,0.60
2023-05-17T12:14:44.666Z,0.65
2023-05-17T12:17:13.503Z,1.10
2023-05-17T12:19:40.035Z,0.77
2023-05-17T12:22:08.343Z,0.57
2023-05-17T12:24:41.501Z,0.60
2023-05-17T12:27:08.189Z,1.00
2023-05-17T12:29:34.610Z,0.90
2023-05-17T12:32:01.605Z,0.98
2023-05-17T12:34:29.298Z,0.73
2023-05-17T12:36:55.783Z,0.73
2023-05-17T12:39:24.155Z,0.77
2023-05-17T12:41:52.007Z,0.73
2023-05-17T12:44:20.432Z,0.70
2023-05-17T12:46:53.598Z,0.82
2023-05-17T12:49:22.777Z,1.00
2023-05-17T12:51:49.666Z,0.50
2023-05-17T12:54:26.501Z,0.85
2023-05-17T12:56:53.058Z,1.05
2023-05-17T12:59:25.283Z,0.75
2023-05-17T13:01:53.249Z,1.08
2023-05-17T13:04:20.573Z,0.85
2023-05-17T13:06:47.901Z,1.13
2023-05-17T13:09:14.592Z,0.95
2023-05-17T13:11:41.493Z,0.75
2023-05-17T13:14:08.340Z,0.98
2023-05-17T13:16:37.644Z,0.88
2023-05-17T13:19:11.645Z,0.85
2023-05-17T13:21:38.096Z,0.73
2023-05-17T13:24:04.538Z,0.80
2023-05-17T13:26:30.982Z,0.95
2023-05-17T13:28:57.600Z,0.63
2023-05-17T13:31:24.009Z,1.20
2023-05-17T13:33:50.604Z,0.85
2023-05-17T13:36:17.325Z,1.17
2023-05-17T13:38:43.591Z,0.90
2023-05-17T13:41:10.497Z,1.48
2023-05-17T13:43:36.983Z,0.93
2023-05-17T13:46:03.581Z,0.73
2023-05-17T13:48:30.044Z,0.65
2023-05-17T13:50:56.897Z,1.23
2023-05-17T13:53:23.171Z,0.60
2023-05-17T13:55:49.755Z,0.50
2023-05-17T13:58:17.776Z,1.02
2023-05-17T14:00:44.729Z,1.20
2023-05-17T14:03:13.306Z,0.80
2023-05-17T14:05:39.868Z,0.70
2023-05-17T14:08:06.459Z,1.00
2023-05-17T14:10:32.848Z,0.75
2023-05-17T14:12:59.223Z,1.27
2023-05-17T14:15:27.447Z,1.00
2023-05-17T14:17:54.099Z,0.82
2023-05-17T14:20:20.643Z,0.73
2023-05-17T14:22:47.637Z,0.73
2023-05-17T14:25:14.680Z,0.82
2023-05-17T14:27:41.051Z,1.05
2023-05-17T14:30:07.973Z,0.90
2023-05-17T14:32:35.440Z,0.80
2023-05-17T14:35:01.861Z,0.75
2023-05-17T14:37:28.221Z,0.90
2023-05-17T14:40:06.123Z,0.90
2023-05-17T14:42:33.296Z,0.50
2023-05-17T14:44:59.677Z,0.90
2023-05-17T14:47:26.119Z,0.85
2023-05-17T14:49:52.555Z,0.75
2023-05-17T14:52:18.877Z,1.05
2023-05-17T14:54:45.267Z,1.15
2023-05-17T14:57:12.040Z,1.00
2023-05-17T14:59:38.594Z,1.58
2023-05-17T15:02:05.240Z,0.70
2023-05-17T15:04:31.704Z,1.42
2023-05-17T15:06:58.934Z,1.02
2023-05-17T15:09:25.274Z,0.77
2023-05-17T15:11:51.619Z,0.80
2023-05-17T15:14:24.843Z,0.90
2023-05-17T15:16:52.320Z,0.88
2023-05-17T15:19:18.994Z,1.00
2023-05-17T15:21:45.483Z,0.88
2023-05-17T15:24:13.907Z,1.25
2023-05-17T15:26:41.808Z,1.27
2023-05-17T15:29:08.097Z,0.57
2023-05-17T15:31:34.544Z,0.95
2023-05-17T15:34:01.006Z,1.10
2023-05-17T15:36:27.519Z,0.80
2023-05-17T15:38:53.913Z,0.90
2023-05-17T15:41:22.332Z,1.25
2023-05-17T15:43:48.660Z,0.90
2023-05-17T15:46:15.028Z,1.10
2023-05-17T15:48:41.508Z,1.02
2023-05-17T15:51:07.919Z,0.98
2023-05-17T15:53:34.808Z,1.00
2023-05-17T15:56:01.237Z,0.82
2023-05-17T15:58:28.251Z,0.93
2023-05-17T16:00:54.900Z,0.80
2023-05-17T16:03:21.252Z,1.02
2023-05-17T16:05:47.882Z,1.05
2023-05-17T16:08:14.215Z,1.25
2023-05-17T16:10:40.663Z,1.48
2023-05-17T16:13:06.957Z,0.95
2023-05-17T16:15:34.135Z,1.55
2023-05-17T16:18:00.480Z,0.88
2023-05-17T16:20:26.962Z,1.20
2023-05-17T16:22:53.905Z,0.82
2023-05-17T16:25:21.422Z,1.02
2023-05-17T16:27:48.232Z,1.65
2023-05-17T16:30:15.363Z,0.88
2023-05-17T16:32:42.198Z,0.98
2023-05-17T16:35:08.599Z,1.33
2023-05-17T16:37:35.148Z,1.02
2023-05-17T16:40:01.835Z,0.93
2023-05-17T16:42:29.241Z,0.95
2023-05-17T16:44:56.823Z,0.55
2023-05-17T16:47:26.199Z,0.93
2023-05-17T16:49:53.153Z,0.98
2023-05-17T16:52:19.785Z,0.60
2023-05-17T16:54:46.368Z,0.73
2023-05-17T16:57:12.758Z,1.40
2023-05-17T16:59:39.147Z,0.73
2023-05-17T17:02:05.715Z,2.08
2023-05-17T17:04:32.109Z,1.00
2023-05-17T17:06:58.742Z,0.98
2023-05-17T17:09:25.034Z,1.40
2023-05-17T17:11:51.300Z,0.93
2023-05-17T17:14:18.021Z,1.30
2023-05-17T17:16:44.556Z,1.17
2023-05-17T17:19:10.954Z,0.90
2023-05-17T17:21:37.475Z,1.00
2023-05-17T17:24:07.059Z,1.23
2023-05-17T17:26:36.935Z,1.30
2023-05-17T17:29:08.118Z,1.10
2023-05-17T17:31:34.459Z,0.93
2023-05-17T17:34:00.786Z,0.88
2023-05-17T17:36:27.169Z,1.20
2023-05-17T17:38:53.651Z,0.98
2023-05-17T17:41:20.054Z,0.93
2023-05-17T17:43:47.893Z,0.98
2023-05-17T17:46:14.360Z,0.80
2023-05-17T17:48:40.973Z,0.93
2023-05-17T17:51:07.431Z,1.25
2023-05-17T17:53:33.907Z,1.20
2023-05-17T17:56:00.264Z,0.80
2023-05-17T17:58:26.617Z,1.02
2023-05-17T18:00:53.756Z,0.88
2023-05-17T18:03:20.096Z,1.33
2023-05-17T18:05:46.459Z,1.70
2023-05-17T18:08:12.899Z,0.90
2023-05-17T18:10:39.186Z,1.10
2023-05-17T18:13:05.923Z,1.08
2023-05-17T18:15:32.337Z,1.45
2023-05-17T18:17:59.079Z,1.02
2023-05-17T18:20:26.264Z,0.80
2023-05-17T18:22:52.865Z,1.08
2023-05-17T18:25:19.417Z,1.05
2023-05-17T18:27:45.954Z,1.02
2023-05-17T18:30:12.619Z,1.17
2023-05-17T18:32:39.215Z,1.15
2023-05-17T18:35:05.870Z,1.45
2023-05-17T18:37:32.906Z,1.10
2023-05-17T18:40:01.811Z,1.13
2023-05-17T18:42:28.562Z,0.98
2023-05-17T18:44:54.934Z,1.13
2023-05-17T18:47:23.435Z,1.50
2023-05-17T18:49:50.485Z,1.30
2023-05-17T18:52:16.758Z,1.35
2023-05-17T18:54:43.234Z,1.92
2023-05-17T18:57:11.854Z,2.03
2023-05-17T18:59:38.296Z,1.60
2023-05-17T19:02:05.097Z,0.88
2023-05-17T19:04:32.201Z,0.82
2023-05-17T19:06:58.959Z,1.10
2023-05-17T19:09:25.275Z,2.42
2023-05-17T19:11:51.580Z,1.65
2023-05-17T19:14:17.929Z,1.70
2023-05-17T19:16:45.365Z,1.30
2023-05-17T19:19:11.864Z,1.15
2023-05-17T19:21:38.241Z,1.90
2023-05-17T19:24:05.654Z,0.90
2023-05-17T19:26:31.956Z,0.85
2023-05-17T19:28:58.239Z,1.08
2023-05-17T19:31:24.710Z,0.88
2023-05-17T19:33:51.053Z,0.88
2023-05-17T19:36:17.639Z,0.88
2023-05-17T19:38:44.038Z,1.58
2023-05-17T19:41:10.408Z,1.20
2023-05-17T19:43:36.948Z,1.13
2023-05-17T19:46:03.630Z,1.83
2023-05-17T19:48:30.543Z,3.22
2023-05-17T19:50:56.975Z,0.75
2023-05-17T19:53:23.879Z,0.90
2023-05-17T19:55:50.291Z,1.27
2023-05-17T19:58:16.609Z,1.38
2023-05-17T20:00:43.149Z,0.85
2023-05-17T20:03:09.628Z,1.67
2023-05-17T20:05:36.395Z,1.65
2023-05-17T20:08:05.132Z,2.10
2023-05-17T20:10:31.937Z,1.75
2023-05-17T20:12:58.514Z,2.60
2023-05-17T20:15:25.370Z,4.35
2023-05-17T20:17:51.878Z,3.38
2023-05-17T20:20:18.395Z,1.70
2023-05-17T20:22:46.489Z,1.30
2023-05-17T20:25:12.858Z,1.50
2023-05-17T20:27:39.246Z,1.60
2023-05-17T20:30:06.715Z,0.73
2023-05-17T20:32:33.078Z,1.42
2023-05-17T20:34:59.496Z,1.20
2023-05-17T20:37:26.218Z,1.42
2023-05-17T20:39:53.351Z,0.73
2023-05-17T20:42:20.331Z,0.70
2023-05-17T20:44:48.919Z,1.42
2023-05-17T20:47:15.299Z,2.53
2023-05-17T20:49:41.646Z,1.33
2023-05-17T20:52:07.970Z,1.40
2023-05-17T20:54:34.377Z,2.05
2023-05-17T20:57:02.070Z,1.30
2023-05-17T20:59:28.622Z,2.15
2023-05-17T21:01:55.066Z,2.00
2023-05-17T21:04:21.680Z,2.40
2023-05-17T21:06:48.064Z,2.50
2023-05-17T21:09:14.454Z,1.48
2023-05-17T21:11:41.030Z,1.83
2023-05-17T21:14:07.378Z,1.70
2023-05-17T21:16:35.269Z,1.65
2023-05-17T21:19:01.972Z,1.58
2023-05-17T21:21:28.507Z,2.83
2023-05-17T21:23:55.027Z,1.85
2023-05-17T21:26:21.862Z,1.92
2023-05-17T21:28:48.197Z,3.65
2023-05-17T21:31:15.468Z,3.25
2023-05-17T21:33:41.862Z,4.60
2023-05-17T21:36:08.232Z,3.03
2023-05-17T21:38:34.602Z,6.82
2023-05-17T21:41:00.916Z,3.67
2023-05-17T21:43:27.300Z,7.90
2023-05-17T21:45:53.735Z,2.05
2023-05-17T21:48:20.092Z,1.50
2023-05-17T21:50:46.499Z,1.48
2023-05-17T21:53:13.434Z,1.35
2023-05-17T21:56:00.772Z,1.63
2023-05-17T21:58:27.844Z,1.73
2023-05-17T22:00:54.445Z,1.30
2023-05-17T22:03:21.328Z,1.50
2023-05-17T22:05:49.351Z,1.08
2023-05-17T22:08:16.100Z,1.40
2023-05-17T22:10:42.538Z,1.30
2023-05-17T22:13:12.073Z,1.77
2023-05-17T22:15:38.486Z,2.03
2023-05-17T22:18:05.205Z,1.90
2023-05-17T22:20:32.001Z,2.08
2023-05-17T22:22:59.932Z,1.92
2023-05-17T22:25:26.421Z,1.27
2023-05-17T22:27:52.740Z,2.00
2023-05-17T22:30:19.094Z,1.90
2023-05-17T22:32:45.484Z,3.58
2023-05-17T22:35:11.956Z,3.67
2023-05-17T22:37:41.260Z,3.47
2023-05-17T22:40:08.059Z,1.83
2023-05-17T22:42:34.679Z,1.70
2023-05-17T22:45:01.409Z,1.50
2023-05-17T22:47:30.236Z,1.60
2023-05-17T22:49:58.040Z,1.80
2023-05-17T22:52:24.467Z,1.60
2023-05-17T22:54:50.829Z,1.65
2023-05-17T22:57:17.180Z,1.80
2023-05-17T22:59:44.187Z,1.73
2023-05-17T23:02:12.375Z,2.28
2023-05-17T23:04:40.566Z,1.75
2023-05-17T23:07:09.899Z,2.13
2023-05-17T23:09:40.421Z,2.20
2023-05-17T23:12:07.186Z,2.95
2023-05-17T23:14:36.005Z,2.47
2023-05-17T23:17:03.245Z,3.25
2023-05-17T23:19:31.985Z,5.13
2023-05-17T23:22:02.723Z,2.20
2023-05-17T23:24:29.037Z,2.25
2023-05-17T23:26:59.007Z,1.10
2023-05-17T23:29:26.021Z,3.72
2023-05-17T23:31:53.932Z,1.92
2023-05-17T23:34:22.137Z,1.27
2023-05-17T23:36:51.093Z,1.35
2023-05-17T23:39:17.394Z,2.28
2023-05-17T23:41:44.081Z,1.90
2023-05-17T23:44:10.742Z,2.63
2023-05-17T23:46:38.392Z,2.22
2023-05-17T23:49:05.812Z,2.00
2023-05-17T23:51:34.683Z,1.75
2023-05-17T23:54:01.231Z,1.52
2023-05-17T23:56:27.663Z,1.27
2023-05-17T23:58:53.935Z,2.17
